Terminal Aerodrome Forecast
Issued by NWS Omaha/Valley, NE

Current Version | Previous Version | Text Only | Print | Product List | Glossary On
Versions: 1 2 3 4 5 6 7 8 9 10 11 12 13 14 15 16
000
FTUS43 KOAX 260520
TAFLNK
TAF
KLNK 260520Z 2606/2706 24004KT P6SM BKN250
     FM261400 24008KT P6SM BKN250
     FM261800 31014G22KT P6SM BKN150
     FM262000 35017G26KT P6SM SCT040 BKN100
     FM270100 34011KT P6SM FEW250=

USA.gov is the U.S. government's official web portal to all federal, state and local government web resources and services.